Time;durP1;ratioP1;P1;durP2;ratioP2;P2;SDS_P1;SDS_P2;PMS_P1;PMS_P2;Temp;Humidity;BMP_temperature;BMP_pressure;BME280_temperature;BME280_humidity;BME280_pressure;Samples;Min_cycle;Max_cycle;Signal;HPM_P1;HPM_P2
2024/03/09 00:00:30;;;;;;;;;69.60;52.00;;;;;3.98;100.00;98902.16;5988291;29;96663;-58
2024/03/09 00:03:34;;;;;;;;;71.00;52.40;;;;;3.95;100.00;98899.03;5973707;29;98515;-57
2024/03/09 00:06:37;;;;;;;;;65.60;51.00;;;;;3.94;100.00;98900.88;5974091;29;96560;-57
2024/03/09 00:09:41;;;;;;;;;68.00;52.00;;;;;3.87;100.00;98906.09;5975796;29;95995;-57
2024/03/09 00:12:47;;;;;;;;;71.60;55.00;;;;;3.79;100.00;98905.31;5973851;29;96533;-57
2024/03/09 00:15:51;;;;;;;;;68.00;52.00;;;;;3.79;100.00;98903.50;5975339;29;96499;-57
2024/03/09 00:18:54;;;;;;;;;67.00;51.00;;;;;3.70;100.00;98895.72;5979773;29;96746;-57
2024/03/09 00:21:57;;;;;;;;;65.00;51.00;;;;;3.66;100.00;98889.09;5989009;29;96712;-57
2024/03/09 00:25:02;;;;;;;;;67.60;52.00;;;;;3.78;100.00;98896.50;5997917;29;97051;-57
2024/03/09 00:28:06;;;;;;;;;69.00;51.00;;;;;3.71;100.00;98881.41;6011155;28;96436;-57
2024/03/09 00:31:09;;;;;;;;;64.00;50.00;;;;;3.72;100.00;98888.38;6028212;28;97018;-58
2024/03/09 00:34:12;;;;;;;;;70.80;52.00;;;;;3.86;100.00;98892.94;6022458;23;96731;-56
2024/03/09 00:37:15;;;;;;;;;70.20;52.00;;;;;3.90;100.00;98892.41;5970573;29;98673;-57
2024/03/09 00:40:20;;;;;;;;;68.40;52.80;;;;;3.85;100.00;98881.44;6003090;29;96513;-56
2024/03/09 00:43:23;;;;;;;;;69.60;52.00;;;;;3.85;100.00;98893.94;6005264;29;96325;-57
2024/03/09 00:46:26;;;;;;;;;68.75;52.00;;;;;3.78;100.00;98882.31;5989328;29;96969;-56
2024/03/09 00:49:30;;;;;;;;;68.40;52.00;;;;;3.79;100.00;98889.31;6004227;29;96756;-57
2024/03/09 00:52:33;;;;;;;;;69.00;53.80;;;;;3.79;100.00;98887.50;6005492;29;96378;-57
2024/03/09 00:55:37;;;;;;;;;67.00;51.40;;;;;3.81;100.00;98882.78;6005301;29;96347;-57
2024/03/09 00:58:40;;;;;;;;;68.40;52.00;;;;;3.77;100.00;98865.50;6005279;29;96362;-57
2024/03/09 01:01:43;;;;;;;;;66.00;50.00;;;;;3.83;100.00;98872.78;6004935;29;99165;-58
2024/03/09 01:04:48;;;;;;;;;67.25;51.00;;;;;3.79;100.00;98876.00;6005122;29;96363;-58
2024/03/09 01:07:51;;;;;;;;;65.20;51.00;;;;;3.68;100.00;98866.56;6005372;29;96478;-57
2024/03/09 01:10:56;;;;;;;;;69.00;52.00;;;;;3.70;100.00;98869.06;6004822;29;96220;-58
2024/03/09 01:14:00;;;;;;;;;69.60;53.00;;;;;3.63;100.00;98865.44;5989125;29;98443;-56
2024/03/09 01:17:04;;;;;;;;;67.20;52.00;;;;;3.68;100.00;98855.91;6005101;29;96410;-58
2024/03/09 01:20:08;;;;;;;;;69.60;52.00;;;;;3.72;100.00;98859.03;6004785;29;96366;-57
2024/03/09 01:23:12;;;;;;;;;65.60;50.00;;;;;3.57;100.00;98839.53;6005227;29;96412;-58
2024/03/09 01:26:16;;;;;;;;;67.50;50.00;;;;;3.65;100.00;98855.44;6004183;29;96027;-58
2024/03/09 01:29:23;;;;;;;;;66.00;50.40;;;;;3.63;100.00;98849.44;6004310;29;96878;-57
2024/03/09 01:32:27;;;;;;;;;67.25;51.75;;;;;3.65;100.00;98850.09;6003488;29;97505;-56
2024/03/09 01:35:30;;;;;;;;;70.40;53.00;;;;;3.43;100.00;98823.28;6002385;29;97275;-57
2024/03/09 01:38:34;;;;;;;;;70.00;53.00;;;;;3.47;100.00;98840.56;5973786;29;96625;-56
2024/03/09 01:41:38;;;;;;;;;66.40;50.80;;;;;3.37;100.00;98833.84;5972264;29;96291;-58
2024/03/09 01:44:41;;;;;;;;;66.75;51.00;;;;;3.30;100.00;98835.53;5971792;29;96272;-58
2024/03/09 01:47:45;;;;;;;;;67.00;50.50;;;;;3.30;100.00;98836.38;5974003;29;96256;-57
2024/03/09 01:50:49;;;;;;;;;67.00;51.00;;;;;3.25;100.00;98819.25;5972631;29;96954;-57
2024/03/09 01:53:53;;;;;;;;;67.00;50.40;;;;;3.31;100.00;98829.22;5973784;29;96432;-57
2024/03/09 01:56:58;;;;;;;;;65.75;49.75;;;;;3.30;100.00;98830.19;5973541;29;96448;-57
2024/03/09 02:00:02;;;;;;;;;65.20;50.80;;;;;3.31;100.00;98824.72;5973536;29;96688;-57
2024/03/09 02:03:12;;;;;;;;;67.00;52.00;;;;;3.39;100.00;98824.63;5982143;29;97008;-57
2024/03/09 02:06:17;;;;;;;;;66.40;50.00;;;;;3.32;100.00;98829.00;5983689;29;97124;-53
2024/03/09 02:09:21;;;;;;;;;67.25;49.25;;;;;3.32;100.00;98826.34;5984176;29;96203;-53
2024/03/09 02:12:26;;;;;;;;;65.40;50.00;;;;;3.30;100.00;98824.88;5995341;29;97107;-54
2024/03/09 02:15:32;;;;;;;;;67.00;50.00;;;;;3.37;100.00;98820.50;5982389;29;96363;-53
2024/03/09 02:18:35;;;;;;;;;65.00;50.00;;;;;3.45;100.00;98833.75;5983333;29;97075;-53
2024/03/09 02:21:38;;;;;;;;;68.00;51.00;;;;;3.52;100.00;98833.91;5982382;29;96655;-54
2024/03/09 02:24:42;;;;;;;;;66.50;50.00;;;;;3.57;100.00;98834.19;5983203;29;96261;-53
2024/03/09 02:27:47;;;;;;;;;67.00;50.00;;;;;3.61;100.00;98827.50;5983089;29;96391;-53
2024/03/09 02:30:50;;;;;;;;;65.50;50.50;;;;;3.59;100.00;98830.31;5983222;29;96326;-53
2024/03/09 02:33:55;;;;;;;;;67.00;51.00;;;;;3.62;100.00;98831.78;5982160;29;96344;-53
2024/03/09 02:36:58;;;;;;;;;65.60;50.00;;;;;3.54;100.00;98831.88;5981896;29;96355;-54
2024/03/09 02:40:03;;;;;;;;;64.80;50.00;;;;;3.37;100.00;98812.50;5966799;29;99925;-54
2024/03/09 02:43:08;;;;;;;;;65.40;50.00;;;;;3.53;100.00;98825.69;5983268;29;96386;-54
2024/03/09 02:46:12;;;;;;;;;65.25;50.00;;;;;3.31;100.00;98778.59;5981964;29;99210;-53
2024/03/09 02:49:15;;;;;;;;;63.60;48.60;;;;;3.67;100.00;98824.09;5982427;29;96339;-54
2024/03/09 02:52:20;;;;;;;;;61.80;48.60;;;;;3.56;100.00;98819.19;5982052;29;96279;-54
2024/03/09 02:55:26;;;;;;;;;67.00;49.60;;;;;3.60;100.00;98824.00;5981693;29;97090;-53
2024/03/09 02:58:32;;;;;;;;;63.80;48.20;;;;;3.41;100.00;98824.47;5983223;29;96579;-55
2024/03/09 03:01:36;;;;;;;;;65.60;48.00;;;;;3.38;100.00;98816.81;5965559;29;99324;-54
2024/03/09 03:04:40;;;;;;;;;62.00;48.00;;;;;3.37;100.00;98812.50;5982033;29;96260;-55
2024/03/09 03:07:43;;;;;;;;;62.40;49.00;;;;;3.28;100.00;98802.91;5979976;29;97300;-54
2024/03/09 03:10:46;;;;;;;;;63.20;48.20;;;;;3.14;100.00;98803.66;5982346;29;96365;-54
2024/03/09 03:13:52;;;;;;;;;62.20;47.80;;;;;3.10;100.00;98808.53;5981896;29;96953;-55
2024/03/09 03:16:56;;;;;;;;;62.00;47.00;;;;;3.13;100.00;98807.34;5976359;29;96669;-59
2024/03/09 03:19:59;;;;;;;;;62.67;48.00;;;;;3.18;100.00;98804.97;5972519;29;96513;-58
2024/03/09 03:23:04;;;;;;;;;61.00;48.20;;;;;3.03;100.00;98789.75;5972587;29;96778;-58
2024/03/09 03:26:12;;;;;;;;;59.75;46.00;;;;;3.13;100.00;98802.03;5969620;29;96305;-58
2024/03/09 03:29:17;;;;;;;;;60.00;45.00;;;;;3.17;100.00;98798.84;5971224;29;96872;-59
2024/03/09 03:32:20;;;;;;;;;61.00;46.00;;;;;2.78;100.00;98734.19;5953087;29;96973;-58
2024/03/09 03:35:25;;;;;;;;;58.00;44.20;;;;;3.20;100.00;98797.63;5960031;29;97829;-58
2024/03/09 03:38:28;;;;;;;;;52.50;42.00;;;;;3.11;100.00;98796.88;5976073;29;96311;-58
2024/03/09 03:41:31;;;;;;;;;55.00;43.00;;;;;2.86;100.00;98774.88;5975956;29;96427;-58
2024/03/09 03:44:39;;;;;;;;;56.50;43.00;;;;;3.03;100.00;98788.91;5975111;29;97479;-58
2024/03/09 03:47:42;;;;;;;;;50.60;41.40;;;;;2.89;100.00;98795.81;5993718;29;96407;-58
2024/03/09 03:50:46;;;;;;;;;57.40;43.40;;;;;2.91;100.00;98798.31;5993615;29;96367;-58
2024/03/09 03:53:49;;;;;;;;;54.40;42.00;;;;;2.93;100.00;98793.66;5975130;29;96533;-58
2024/03/09 03:56:53;;;;;;;;;53.00;41.20;;;;;2.92;100.00;98797.31;5975632;29;97810;-57
2024/03/09 03:59:58;;;;;;;;;53.00;41.40;;;;;2.87;100.00;98797.00;5990200;29;98671;-58
2024/03/09 04:03:01;;;;;;;;;53.00;42.00;;;;;2.71;100.00;98778.47;5975439;29;96264;-57
2024/03/09 04:06:07;;;;;;;;;51.60;42.00;;;;;2.69;100.00;98793.78;5975050;29;96600;-57
2024/03/09 04:09:13;;;;;;;;;53.00;41.75;;;;;2.78;100.00;98785.59;5984414;29;96464;-57
2024/03/09 04:12:17;;;;;;;;;47.00;38.00;;;;;2.87;100.00;98783.69;5970489;29;96553;-57
2024/03/09 04:15:22;;;;;;;;;53.00;40.00;;;;;2.90;100.00;98792.16;5974917;29;96544;-57
2024/03/09 04:18:28;;;;;;;;;47.60;38.00;;;;;2.91;100.00;98796.47;5975189;29;96497;-57
2024/03/09 04:21:31;;;;;;;;;44.75;36.00;;;;;2.48;100.00;98723.38;5968721;29;98592;-58
2024/03/09 04:24:34;;;;;;;;;49.25;39.00;;;;;2.83;100.00;98793.88;5972625;29;96273;-58
2024/03/09 04:27:37;;;;;;;;;49.00;37.40;;;;;2.89;100.00;98794.97;5970692;29;97501;-57
2024/03/09 04:30:42;;;;;;;;;49.00;38.60;;;;;2.86;100.00;98790.03;5973410;29;96400;-57
2024/03/09 04:33:46;;;;;;;;;51.60;39.20;;;;;2.88;100.00;98782.72;5972340;29;96923;-58
2024/03/09 04:36:49;;;;;;;;;49.50;39.50;;;;;2.94;100.00;98788.13;5973763;29;96693;-57
2024/03/09 04:39:53;;;;;;;;;54.00;41.00;;;;;2.97;100.00;98776.31;5972228;29;98377;-58
2024/03/09 04:42:56;;;;;;;;;50.00;40.20;;;;;2.90;100.00;98788.66;5956886;29;96479;-57
2024/03/09 04:46:00;;;;;;;;;49.20;40.00;;;;;3.00;100.00;98783.94;5970808;29;98511;-57
2024/03/09 04:49:03;;;;;;;;;51.20;38.60;;;;;3.01;100.00;98785.59;5972736;29;96326;-57
2024/03/09 04:52:07;;;;;;;;;50.20;39.60;;;;;2.89;100.00;98765.69;5973147;29;96558;-57
2024/03/09 04:55:10;;;;;;;;;49.80;39.40;;;;;2.95;100.00;98787.13;5972925;29;96411;-57
2024/03/09 04:58:15;;;;;;;;;49.00;39.00;;;;;3.01;100.00;98790.94;5961482;29;98387;-58
2024/03/09 05:01:20;;;;;;;;;50.00;41.00;;;;;3.06;100.00;98785.91;5984162;29;96913;-57
2024/03/09 05:04:23;;;;;;;;;51.25;40.00;;;;;3.03;100.00;98795.06;5975021;29;96509;-57
2024/03/09 05:07:28;;;;;;;;;52.60;39.00;;;;;3.03;100.00;98794.22;5974546;29;96262;-58
2024/03/09 05:10:31;;;;;;;;;51.00;41.00;;;;;2.99;100.00;98785.78;5974079;29;96264;-57
2024/03/09 05:13:35;;;;;;;;;52.00;41.00;;;;;2.88;100.00;98794.16;5957755;29;98401;-57
2024/03/09 05:16:40;;;;;;;;;54.00;41.00;;;;;2.74;100.00;98791.41;5974699;29;96359;-58
2024/03/09 05:19:43;;;;;;;;;49.75;38.75;;;;;2.86;100.00;98787.38;5957724;29;96851;-57
2024/03/09 05:22:46;;;;;;;;;53.00;39.00;;;;;2.85;100.00;98780.38;5971139;29;96850;-57
2024/03/09 05:25:49;;;;;;;;;49.00;38.00;;;;;2.76;100.00;98778.75;5966219;29;96346;-57
2024/03/09 05:28:56;;;;;;;;;48.40;39.00;;;;;2.71;100.00;98789.09;5974594;29;96984;-58
2024/03/09 05:32:03;;;;;;;;;48.80;39.00;;;;;2.75;100.00;98790.41;5972498;29;97132;-57
2024/03/09 05:35:11;;;;;;;;;48.40;38.60;;;;;2.67;100.00;98785.13;5958187;29;96274;-57
2024/03/09 05:38:15;;;;;;;;;50.50;38.00;;;;;2.62;100.00;98775.00;5966580;29;98798;-54
2024/03/09 05:41:19;;;;;;;;;53.40;39.40;;;;;2.89;100.00;98790.50;5998520;29;96521;-54
2024/03/09 05:44:22;;;;;;;;;45.00;37.00;;;;;2.83;100.00;98787.72;5988110;29;96724;-54
2024/03/09 05:47:26;;;;;;;;;49.00;39.00;;;;;2.81;100.00;98793.22;5983919;29;96759;-54
2024/03/09 05:50:30;;;;;;;;;43.75;36.25;;;;;2.54;100.00;98765.22;5982656;29;96687;-55
2024/03/09 05:53:34;;;;;;;;;47.60;37.40;;;;;2.70;100.00;98793.59;5967325;29;98814;-54
2024/03/09 05:56:38;;;;;;;;;50.40;37.60;;;;;2.64;100.00;98798.81;5981843;29;96265;-54
2024/03/09 05:59:41;;;;;;;;;50.00;39.00;;;;;2.45;100.00;98802.69;5983733;29;96426;-54
2024/03/09 06:02:46;;;;;;;;;49.80;40.00;;;;;2.20;100.00;98748.75;5984031;29;96196;-54
2024/03/09 06:05:49;;;;;;;;;52.80;40.20;;;;;2.44;100.00;98793.91;5983205;29;96642;-56
2024/03/09 06:08:52;;;;;;;;;55.00;43.00;;;;;2.53;100.00;98787.53;5996626;29;96317;-55
2024/03/09 06:11:55;;;;;;;;;51.75;40.00;;;;;2.60;100.00;98792.97;5983474;29;96200;-54
2024/03/09 06:14:58;;;;;;;;;55.40;43.00;;;;;2.84;100.00;98792.03;5970303;29;96325;-54
2024/03/09 06:18:03;;;;;;;;;50.80;41.00;;;;;3.12;100.00;98793.19;5998930;29;96392;-54
2024/03/09 06:21:06;;;;;;;;;51.80;40.00;;;;;2.96;100.00;98743.53;5978842;29;97068;-54
2024/03/09 06:24:10;;;;;;;;;47.60;38.00;;;;;3.25;100.00;98792.59;5980290;29;98432;-54
2024/03/09 06:27:13;;;;;;;;;47.25;38.25;;;;;3.43;100.00;98788.63;5986873;29;96331;-55
2024/03/09 06:30:16;;;;;;;;;49.80;40.00;;;;;3.69;100.00;98796.25;5981892;29;96291;-55
2024/03/09 06:33:22;;;;;;;;;49.60;38.40;;;;;3.88;100.00;98794.91;5981420;29;96345;-54
2024/03/09 06:36:25;;;;;;;;;53.00;40.40;;;;;4.07;100.00;98802.38;5996293;29;96458;-54
2024/03/09 06:39:30;;;;;;;;;48.40;39.00;;;;;4.23;100.00;98793.38;5976550;29;99068;-54
2024/03/09 06:42:34;;;;;;;;;55.40;42.00;;;;;4.40;100.00;98788.69;5980718;29;96360;-55
2024/03/09 06:45:38;;;;;;;;;49.75;39.75;;;;;4.17;100.00;98762.09;5995131;29;99445;-54
2024/03/09 06:48:42;;;;;;;;;52.75;40.00;;;;;4.23;100.00;98778.19;5985086;29;96249;-54
2024/03/09 06:51:45;;;;;;;;;55.00;42.00;;;;;4.29;100.00;98773.97;5971865;29;96300;-53
2024/03/09 06:54:49;;;;;;;;;49.40;39.60;;;;;4.36;100.00;98767.69;5963475;29;96793;-55
2024/03/09 06:57:53;;;;;;;;;49.60;40.40;;;;;4.63;100.00;98782.22;5976404;29;96449;-54
2024/03/09 07:00:57;;;;;;;;;54.33;42.00;;;;;4.76;100.00;98782.38;5978181;29;96825;-55
2024/03/09 07:04:03;;;;;;;;;49.00;39.00;;;;;4.95;100.00;98788.13;5972592;29;98430;-54
2024/03/09 07:07:09;;;;;;;;;55.00;42.40;;;;;4.98;100.00;98772.59;5970329;29;97062;-54
2024/03/09 07:10:13;;;;;;;;;54.20;42.00;;;;;4.99;100.00;98782.22;5974585;29;96298;-55
2024/03/09 07:13:18;;;;;;;;;50.00;39.80;;;;;5.13;100.00;98797.38;5983358;29;96303;-53
2024/03/09 07:16:22;;;;;;;;;48.00;37.75;;;;;4.93;100.00;98788.34;5982618;29;98037;-54
2024/03/09 07:19:26;;;;;;;;;49.00;39.00;;;;;4.89;100.00;98788.91;5983691;29;96254;-53
2024/03/09 07:22:29;;;;;;;;;51.80;42.80;;;;;5.31;100.00;98796.16;5984291;29;96337;-54
2024/03/09 07:25:32;;;;;;;;;52.80;41.20;;;;;5.56;100.00;98800.09;5983944;29;96254;-54
2024/03/09 07:28:35;;;;;;;;;49.00;37.80;;;;;5.72;100.00;98804.34;5982575;29;96795;-54
2024/03/09 07:31:39;;;;;;;;;50.00;38.00;;;;;5.86;100.00;98796.25;5981900;29;96405;-55
2024/03/09 07:34:43;;;;;;;;;48.00;39.50;;;;;5.94;100.00;98801.47;5996959;29;96377;-54
2024/03/09 07:37:47;;;;;;;;;50.75;39.75;;;;;6.17;100.00;98805.75;5982679;29;96457;-54
2024/03/09 07:40:50;;;;;;;;;48.60;38.60;;;;;6.43;100.00;98808.59;5982976;29;97086;-55
2024/03/09 07:43:54;;;;;;;;;52.00;39.00;;;;;6.68;100.00;98811.63;5983019;29;96471;-55
2024/03/09 07:46:57;;;;;;;;;51.40;38.80;;;;;6.77;100.00;98810.44;5982769;29;96357;-53
2024/03/09 07:50:01;;;;;;;;;49.00;39.00;;;;;6.88;100.00;98809.88;5981360;29;96392;-54
2024/03/09 07:53:06;;;;;;;;;50.00;39.00;;;;;7.15;100.00;98803.56;5981774;29;97065;-54
2024/03/09 07:56:09;;;;;;;;;49.00;38.00;;;;;7.39;100.00;98804.84;5981492;29;96418;-58
2024/03/09 07:59:17;;;;;;;;;49.00;40.00;;;;;7.60;100.00;98804.69;5975949;29;96780;-58
2024/03/09 08:02:20;;;;;;;;;50.00;38.50;;;;;7.77;100.00;98815.88;5974040;29;96488;-58
2024/03/09 08:05:26;;;;;;;;;51.60;37.80;;;;;7.90;100.00;98823.91;5969586;29;96216;-58
2024/03/09 08:08:29;;;;;;;;;49.00;39.00;;;;;7.94;100.00;98810.91;5974932;29;97652;-58
2024/03/09 08:11:32;;;;;;;;;53.60;42.60;;;;;8.19;100.00;98809.25;5972904;29;96657;-58
2024/03/09 08:14:35;;;;;;;;;51.00;39.00;;;;;8.50;100.00;98806.72;5974741;29;96316;-58
2024/03/09 08:17:38;;;;;;;;;46.75;36.00;;;;;8.73;100.00;98800.06;5973220;29;96334;-58
2024/03/09 08:20:43;;;;;;;;;46.75;36.00;;;;;8.86;100.00;98795.47;5973229;29;96271;-58
2024/03/09 08:23:47;;;;;;;;;51.00;39.00;;;;;8.97;100.00;98799.34;5972263;29;97497;-58
2024/03/09 08:26:50;;;;;;;;;46.75;36.00;;;;;8.88;100.00;98789.88;5959728;29;97563;-58
2024/03/09 08:29:53;;;;;;;;;47.00;35.40;;;;;8.75;100.00;98776.50;5973997;29;96361;-58
2024/03/09 08:32:58;;;;;;;;;46.60;36.00;;;;;8.76;100.00;98784.31;5973371;29;96934;-58
2024/03/09 08:36:05;;;;;;;;;45.00;35.00;;;;;8.76;100.00;98791.56;5974411;29;96900;-58
2024/03/09 08:39:12;;;;;;;;;45.00;36.00;;;;;8.72;100.00;98780.41;5973888;29;96885;-58
2024/03/09 08:42:15;;;;;;;;;48.40;36.00;;;;;8.78;100.00;98776.88;5971102;29;96590;-58
2024/03/09 08:45:20;;;;;;;;;47.00;36.00;;;;;8.74;100.00;98770.28;5974440;29;97013;-58
2024/03/09 08:48:23;;;;;;;;;44.00;35.00;;;;;8.81;100.00;98783.69;5972134;29;96333;-58
2024/03/09 08:51:27;;;;;;;;;49.00;37.60;;;;;8.84;100.00;98780.59;5971526;29;96290;-58
2024/03/09 08:54:33;;;;;;;;;47.00;36.75;;;;;8.83;100.00;98782.44;5972383;29;96277;-58
2024/03/09 08:57:36;;;;;;;;;43.50;32.00;;;;;8.87;100.00;98788.22;5967599;29;97158;-58
2024/03/09 09:00:39;;;;;;;;;47.75;37.00;;;;;8.90;100.00;98788.63;5974792;29;96334;-58
2024/03/09 09:03:42;;;;;;;;;44.40;35.00;;;;;8.58;100.00;98784.19;5971456;29;96781;-58
2024/03/09 09:06:59;;;;;;;;;44.75;35.75;;;;;8.49;100.00;98775.53;5991507;23;96623;-87
2024/03/09 09:10:31;;;;;;;;;45.00;35.50;;;;;8.89;100.00;98772.72;6457729;23;99050;31
2024/03/09 09:13:35;;;;;;;;;47.25;36.25;;;;;9.09;100.00;98768.03;6019238;28;97159;-56
2024/03/09 09:16:40;;;;;;;;;44.60;35.00;;;;;9.29;100.00;98762.53;6011213;28;96929;-56
2024/03/09 09:19:43;;;;;;;;;47.50;36.00;;;;;9.19;100.00;98756.84;6015645;28;96395;-57
2024/03/09 09:22:47;;;;;;;;;46.60;38.00;;;;;9.29;100.00;98766.06;6008889;28;96340;-56
2024/03/09 09:25:51;;;;;;;;;43.75;35.00;;;;;9.42;100.00;98767.88;6022110;28;96383;-56
2024/03/09 09:28:57;;;;;;;;;43.40;35.40;;;;;9.67;100.00;98762.50;6016557;28;97471;-57
2024/03/09 09:32:00;;;;;;;;;43.00;33.00;;;;;9.69;100.00;98741.56;5991483;28;97020;-56
2024/03/09 09:35:04;;;;;;;;;42.00;33.20;;;;;9.92;100.00;98768.75;6011491;28;96339;-56
2024/03/09 09:38:07;;;;;;;;;47.20;37.80;;;;;10.03;100.00;98749.16;6002419;28;96478;-56
2024/03/09 09:41:11;;;;;;;;;44.40;35.40;;;;;10.17;100.00;98748.00;6015185;28;96985;-58
2024/03/09 09:44:17;;;;;;;;;44.25;36.25;;;;;10.32;100.00;98748.47;6021915;28;96609;-57
2024/03/09 09:47:21;;;;;;;;;48.20;36.20;;;;;10.34;100.00;98743.69;6025091;28;96403;-56
2024/03/09 09:50:25;;;;;;;;;46.00;37.00;;;;;10.39;100.00;98745.72;6022401;28;96722;-55
2024/03/09 09:53:29;;;;;;;;;41.80;35.00;;;;;10.36;100.00;98749.66;6019343;28;96849;-56
2024/03/09 09:56:32;;;;;;;;;44.50;35.00;;;;;10.28;100.00;98755.34;6014682;28;96418;-57
2024/03/09 09:59:37;;;;;;;;;45.40;35.40;;;;;10.02;100.00;98752.06;6015020;28;98554;-57
2024/03/09 10:02:41;;;;;;;;;46.20;36.00;;;;;9.75;100.00;98746.91;6053085;23;96315;-87
2024/03/09 10:16:43;;;;;;;;;45.00;34.67;;;;;9.32;100.00;98728.00;7096025;23;98272;-57
2024/03/09 10:19:47;;;;;;;;;43.50;33.50;;;;;9.21;100.00;98725.16;5998886;29;96352;-58
2024/03/09 10:22:50;;;;;;;;;47.00;35.60;;;;;9.55;100.00;98736.31;5979330;29;97389;-56
2024/03/09 10:26:06;;;;;;;;;43.00;35.00;;;;;9.36;100.00;98734.56;5997821;29;96430;-56
2024/03/09 10:29:10;;;;;;;;;40.00;33.40;;;;;9.63;100.00;98727.13;5993545;29;96891;-58
2024/03/09 10:32:17;;;;;;;;;40.20;32.20;;;;;9.96;100.00;98733.06;5995209;29;96403;-57
2024/03/09 10:35:20;;;;;;;;;35.80;30.60;;;;;10.65;100.00;98748.09;5983570;29;96687;-57
2024/03/09 10:38:27;;;;;;;;;44.50;32.75;;;;;11.20;100.00;98721.03;6000875;29;96399;-56
2024/03/09 10:41:30;;;;;;;;;44.20;33.80;;;;;11.67;100.00;98719.28;5997299;29;97161;-57
2024/03/09 10:44:33;;;;;;;;;37.75;32.75;;;;;12.02;100.00;98712.03;5991450;29;96308;-57
2024/03/09 10:47:40;;;;;;;;;36.00;32.20;;;;;12.30;100.00;98715.91;5992872;29;96354;-56
2024/03/09 10:50:50;;;;;;;;;39.80;32.00;;;;;12.59;100.00;98698.69;5993018;29;97057;-57
2024/03/09 10:54:01;;;;;;;;;42.25;34.25;;;;;13.29;100.00;98701.16;5992945;29;96841;-57
2024/03/09 10:57:09;;;;;;;;;38.00;32.00;;;;;13.99;100.00;98698.78;5987900;29;96417;-58
2024/03/09 11:00:14;;;;;;;;;38.40;32.20;;;;;14.06;100.00;98687.78;6002777;29;96936;-58
2024/03/09 11:03:21;;;;;;;;;39.20;32.00;;;;;14.32;100.00;98674.31;6001166;29;96389;-57
2024/03/09 11:06:28;;;;;;;;;43.00;34.00;;;;;14.74;100.00;98669.19;6002972;29;96414;-57
2024/03/09 11:09:33;;;;;;;;;39.40;34.00;;;;;15.35;100.00;98674.44;5998166;29;96356;-58
2024/03/09 11:12:36;;;;;;;;;36.00;32.00;;;;;17.31;100.00;98674.75;6000535;29;96486;-58
2024/03/09 11:15:39;;;;;;;;;36.00;30.60;;;;;19.80;100.00;98663.81;5996601;29;96631;-58
2024/03/09 11:18:50;;;;;;;;;36.20;32.00;;;;;21.91;91.00;98653.19;5995960;29;96667;-58
2024/03/09 11:21:54;;;;;;;;;35.40;30.00;;;;;23.65;84.46;98647.41;5990523;29;96507;-59
2024/03/09 11:24:57;;;;;;;;;36.50;31.00;;;;;24.36;75.92;98643.63;5992594;29;97230;-59
2024/03/09 11:28:00;;;;;;;;;35.00;31.20;;;;;25.75;69.50;98627.03;6028673;28;98237;-58
2024/03/09 11:31:14;;;;;;;;;33.50;29.00;;;;;28.26;65.51;98630.66;6030087;28;96658;-57
2024/03/09 11:34:21;;;;;;;;;38.20;30.40;;;;;29.30;55.44;98610.63;6025013;28;96541;-57
2024/03/09 11:37:25;;;;;;;;;33.25;28.75;;;;;30.73;54.23;98608.59;6034122;28;96650;-57
2024/03/09 11:40:29;;;;;;;;;32.00;29.25;;;;;32.33;50.07;98595.25;6037909;28;97012;-58
2024/03/09 11:43:32;;;;;;;;;32.00;29.00;;;;;33.70;49.25;98602.09;6024943;28;96321;-59
2024/03/09 11:46:35;;;;;;;;;34.00;29.00;;;;;34.27;43.02;98589.53;6024039;28;96431;-59
2024/03/09 11:49:40;;;;;;;;;32.25;30.00;;;;;34.99;41.92;98593.72;6025015;28;96392;-60
2024/03/09 11:52:45;;;;;;;;;33.00;30.00;;;;;35.48;41.35;98591.16;6025447;28;96274;-59
2024/03/09 11:55:49;;;;;;;;;32.60;29.00;;;;;35.93;39.69;98584.13;6028487;28;96875;-59
2024/03/09 11:58:53;;;;;;;;;30.60;28.80;;;;;36.56;39.59;98584.63;6029053;28;96306;-58
2024/03/09 12:02:02;;;;;;;;;35.40;31.00;;;;;36.78;39.21;98573.00;6025187;28;96390;-58
2024/03/09 12:05:15;;;;;;;;;35.40;30.20;;;;;36.99;38.38;98579.78;6026492;28;96799;-56
2024/03/09 12:08:18;;;;;;;;;35.40;30.00;;;;;37.09;37.81;98568.56;6024857;28;96330;-58
2024/03/09 12:11:22;;;;;;;;;36.50;31.50;;;;;36.79;38.17;98560.56;6025411;28;96870;-57
2024/03/09 12:14:25;;;;;;;;;36.20;32.00;;;;;36.26;38.73;98548.53;6009332;28;96429;-58
2024/03/09 12:17:28;;;;;;;;;35.60;30.80;;;;;35.86;38.46;98547.66;6028622;28;96167;-58
2024/03/09 12:20:33;;;;;;;;;36.25;32.00;;;;;35.34;40.75;98545.47;6012733;28;96870;-58
2024/03/09 12:23:40;;;;;;;;;36.60;31.60;;;;;35.03;40.44;98533.72;6140155;23;97929;-56
2024/03/09 12:26:43;;;;;;;;;37.60;32.60;;;;;34.56;41.32;98528.16;6029110;28;96466;-58
2024/03/09 12:29:46;;;;;;;;;34.00;31.00;;;;;33.65;42.70;98532.50;6038695;23;99229;-56
2024/03/09 12:32:52;;;;;;;;;42.40;34.40;;;;;32.12;46.68;98476.53;6405203;23;98588;31
2024/03/09 12:35:58;;;;;;;;;38.20;30.80;;;;;30.91;50.61;98506.00;6026788;28;97051;-58
2024/03/09 12:39:11;;;;;;;;;36.00;32.00;;;;;29.15;55.33;98491.97;6005084;29;96274;-56
2024/03/09 12:42:15;;;;;;;;;41.40;33.00;;;;;27.66;58.44;98500.31;6006982;29;96384;-56
2024/03/09 12:45:22;;;;;;;;;32.00;30.00;;;;;26.44;65.58;98498.88;6006702;29;96578;-55
2024/03/09 12:48:25;;;;;;;;;38.40;32.00;;;;;25.97;69.36;98504.47;6006923;29;97505;-55
2024/03/09 12:51:32;;;;;;;;;40.00;32.00;;;;;25.48;72.98;98494.03;6006788;29;96329;-55
2024/03/09 12:54:41;;;;;;;;;37.50;32.00;;;;;25.23;74.70;98495.72;6007901;29;96639;-55
2024/03/09 12:57:48;;;;;;;;;36.60;31.00;;;;;24.77;76.17;98491.66;6008281;29;96461;-56
2024/03/09 13:00:53;;;;;;;;;40.80;34.40;;;;;24.48;83.48;98488.72;6006133;29;96632;-53
2024/03/09 13:03:58;;;;;;;;;39.00;32.60;;;;;24.20;80.60;98492.84;6001860;29;96501;-55
2024/03/09 13:07:05;;;;;;;;;42.80;33.00;;;;;23.81;94.39;98493.66;6005724;29;98004;-55
2024/03/09 13:10:17;;;;;;;;;38.00;32.00;;;;;23.38;92.41;98482.41;6011835;29;96351;-55
2024/03/09 13:13:20;;;;;;;;;40.00;33.00;;;;;22.74;94.20;98481.81;6006171;29;96433;-54
2024/03/09 13:16:23;;;;;;;;;33.80;30.00;;;;;22.28;100.00;98469.09;6005767;29;96322;-54
2024/03/09 13:19:26;;;;;;;;;34.20;30.00;;;;;22.17;98.12;98464.13;6006982;29;96587;-55
2024/03/09 13:22:32;;;;;;;;;38.60;32.00;;;;;21.84;97.60;98460.66;6005352;29;96628;-54
2024/03/09 13:25:35;;;;;;;;;37.50;31.00;;;;;21.41;100.00;98451.88;6005572;29;96685;-54
2024/03/09 13:28:40;;;;;;;;;34.25;30.00;;;;;21.56;100.00;98473.53;6004613;29;96280;-54
2024/03/09 13:31:45;;;;;;;;;40.60;31.80;;;;;21.39;100.00;98478.81;6005357;29;96478;-54
2024/03/09 13:34:48;;;;;;;;;39.00;32.00;;;;;21.26;100.00;98465.91;6006745;29;96494;-53
2024/03/09 13:37:53;;;;;;;;;38.75;32.00;;;;;21.02;100.00;98463.22;6007433;29;96432;-53
2024/03/09 13:40:59;;;;;;;;;40.00;33.00;;;;;20.64;100.00;98454.25;6008396;29;96559;-53
2024/03/09 13:44:02;;;;;;;;;38.00;32.00;;;;;20.20;100.00;98444.47;6009691;29;96325;-53
2024/03/09 13:47:06;;;;;;;;;37.60;32.00;;;;;19.89;100.00;98437.75;6009334;29;96404;-53
2024/03/09 13:50:11;;;;;;;;;31.50;28.75;;;;;19.62;100.00;98437.56;6007931;29;96337;-55
2024/03/09 13:53:17;;;;;;;;;35.60;32.00;;;;;19.30;100.00;98428.03;6009193;29;96515;-53
2024/03/09 13:56:20;;;;;;;;;35.40;30.40;;;;;19.10;100.00;98441.09;6008135;29;96410;-54
2024/03/09 13:59:23;;;;;;;;;34.40;30.40;;;;;19.12;100.00;98439.69;6004360;29;96343;-53
2024/03/09 14:02:27;;;;;;;;;33.00;31.00;;;;;19.09;100.00;98437.53;6005391;29;96458;-53
2024/03/09 14:05:31;;;;;;;;;38.80;32.00;;;;;19.24;100.00;98433.84;6003584;29;96333;-53
2024/03/09 14:08:35;;;;;;;;;34.40;29.80;;;;;19.27;100.00;98431.34;6005376;29;96860;-53
2024/03/09 14:11:38;;;;;;;;;33.50;29.25;;;;;19.11;100.00;98424.41;6005647;29;97214;-55
2024/03/09 14:14:42;;;;;;;;;33.25;30.00;;;;;19.03;100.00;98425.03;6005896;29;97522;-55
2024/03/09 14:17:45;;;;;;;;;34.60;30.00;;;;;18.88;100.00;98417.78;6005820;29;96458;-55